createdAt,value
2019-04-28T00:01:18.508Z,99101.61
2019-04-28T00:03:47.976Z,99110.66
2019-04-28T00:06:17.346Z,99108.97
2019-04-28T00:08:46.889Z,99107.39
2019-04-28T00:11:16.426Z,99113.78
2019-04-28T00:13:45.961Z,99100.16
2019-04-28T00:16:15.343Z,99109.20
2019-04-28T00:18:44.826Z,99104.26
2019-04-28T00:21:26.733Z,99102.56
2019-04-28T00:24:14.293Z,99099.11
2019-04-28T00:27:03.666Z,99108.84
2019-04-28T00:29:40.269Z,99102.69
2019-04-28T00:32:04.941Z,99105.09
2019-04-28T00:34:36.070Z,99103.48
2019-04-28T00:37:15.512Z,99111.44
2019-04-28T00:39:44.946Z,99112.57
2019-04-28T00:42:14.421Z,99114.92
2019-04-28T00:44:43.894Z,99111.29
2019-04-28T00:47:13.323Z,99117.16
2019-04-28T00:49:48.883Z,99115.58
2019-04-28T00:52:21.991Z,99107.31
2019-04-28T00:54:52.672Z,99107.06
2019-04-28T00:57:22.943Z,99112.34
2019-04-28T00:59:57.998Z,99110.45
2019-04-28T01:02:32.042Z,99106.70
2019-04-28T01:05:01.928Z,99107.06
2019-04-28T01:07:33.015Z,99112.20
2019-04-28T01:10:02.779Z,99112.80
2019-04-28T01:12:32.206Z,99113.48
2019-04-28T01:15:04.543Z,99106.71
2019-04-28T01:17:49.949Z,99105.16
2019-04-28T01:20:20.576Z,99105.89
2019-04-28T01:22:49.950Z,99104.56
2019-04-28T01:25:20.316Z,99107.75
2019-04-28T01:27:54.323Z,99100.63
2019-04-28T01:30:39.969Z,99101.97
2019-04-28T01:33:18.356Z,99095.34
2019-04-28T01:35:49.384Z,99096.00
2019-04-28T01:38:20.451Z,99107.76
2019-04-28T01:40:50.078Z,99110.16
2019-04-28T01:43:19.735Z,99100.44
2019-04-28T01:45:50.228Z,99101.28
2019-04-28T01:48:20.009Z,99098.74
2019-04-28T01:50:50.026Z,99098.44
2019-04-28T01:53:19.970Z,99105.01
2019-04-28T01:55:49.666Z,99099.70
2019-04-28T01:58:20.431Z,99102.75
2019-04-28T02:00:50.621Z,99097.00
2019-04-28T02:03:20.668Z,99102.55
2019-04-28T02:05:50.311Z,99097.56
2019-04-28T02:08:20.382Z,99099.84
2019-04-28T02:10:50.269Z,99108.25
2019-04-28T02:13:19.984Z,99105.99
2019-04-28T02:15:50.114Z,99099.91
2019-04-28T02:18:20.002Z,99107.06
2019-04-28T02:20:55.748Z,99105.73
2019-04-28T02:23:29.878Z,99106.08
2019-04-28T02:25:59.757Z,99103.09
2019-04-28T02:28:29.689Z,99105.05
2019-04-28T02:31:02.100Z,99110.19
2019-04-28T02:33:31.536Z,99113.80
2019-04-28T02:36:01.608Z,99114.17
2019-04-28T02:38:34.216Z,99119.47
2019-04-28T02:41:02.428Z,99124.62
2019-04-28T02:43:31.905Z,99124.36
2019-04-28T02:46:01.641Z,99124.36
2019-04-28T02:48:31.255Z,99130.63
2019-04-28T02:51:06.285Z,99136.30
2019-04-28T02:53:40.885Z,99127.75
2019-04-28T02:56:11.270Z,99133.28
2019-04-28T02:58:41.540Z,99137.51
2019-04-28T03:01:22.045Z,99146.79
2019-04-28T03:03:44.718Z,99144.77
2019-04-28T03:06:14.291Z,99147.36
2019-04-28T03:08:43.684Z,99148.17
2019-04-28T03:11:13.225Z,99153.38
2019-04-28T03:13:42.758Z,99148.62
2019-04-28T03:16:12.278Z,99154.66
2019-04-28T03:18:41.712Z,99156.71
2019-04-28T03:21:11.540Z,99172.72
2019-04-28T03:23:41.193Z,99175.41
2019-04-28T03:26:35.414Z,99178.93
2019-04-28T03:29:22.314Z,99181.91
2019-04-28T03:32:18.407Z,99182.38
2019-04-28T03:34:53.703Z,99190.78
2019-04-28T03:37:23.911Z,99186.72
2019-04-28T03:39:52.624Z,99197.69
2019-04-28T03:42:22.252Z,99204.55
2019-04-28T03:44:51.861Z,99212.39
2019-04-28T03:47:21.672Z,99208.13
2019-04-28T03:49:51.269Z,99207.28
2019-04-28T03:52:21.557Z,99205.17
2019-04-28T03:54:51.359Z,99200.98
2019-04-28T03:57:21.935Z,99206.30
2019-04-28T03:59:51.690Z,99209.20
2019-04-28T04:02:23.604Z,99213.43
2019-04-28T04:04:52.947Z,99208.03
2019-04-28T04:07:22.641Z,99212.03
2019-04-28T04:10:11.595Z,99216.89
2019-04-28T04:12:50.963Z,99217.36
2019-04-28T04:15:41.955Z,99218.25
2019-04-28T04:18:15.892Z,99218.69
2019-04-28T04:20:45.290Z,99215.81
2019-04-28T04:23:14.907Z,99223.46
2019-04-28T04:25:44.440Z,99221.08
2019-04-28T04:28:13.912Z,99224.39
2019-04-28T04:30:43.302Z,99232.61
2019-04-28T04:33:12.800Z,99235.19
2019-04-28T04:35:43.762Z,99239.28
2019-04-28T04:38:13.580Z,99237.45
2019-04-28T04:40:43.011Z,99237.58
2019-04-28T04:43:12.519Z,99239.47
2019-04-28T04:45:42.078Z,99244.28
2019-04-28T04:48:11.780Z,99247.92
2019-04-28T04:50:41.414Z,99240.19
2019-04-28T04:53:11.215Z,99250.11
2019-04-28T04:55:41.107Z,99250.78
2019-04-28T04:58:10.904Z,99250.78
2019-04-28T05:00:50.897Z,99256.95
2019-04-28T05:03:23.235Z,99256.56
2019-04-28T05:05:52.627Z,99259.00
2019-04-28T05:08:22.054Z,99264.19
2019-04-28T05:10:51.571Z,99262.07
2019-04-28T05:13:21.093Z,99261.59
2019-04-28T05:15:50.764Z,99259.02
2019-04-28T05:18:21.678Z,99258.42
2019-04-28T05:20:51.190Z,99257.66
2019-04-28T05:23:29.750Z,99264.48
2019-04-28T05:26:01.618Z,99266.36
2019-04-28T05:28:32.451Z,99266.94
2019-04-28T05:31:01.663Z,99263.94
2019-04-28T05:33:33.930Z,99260.33
2019-04-28T05:36:03.177Z,99258.05
2019-04-28T05:38:32.905Z,99256.19
2019-04-28T05:41:02.872Z,99261.00
2019-04-28T05:43:32.657Z,99259.92
2019-04-28T05:46:02.087Z,99252.63
2019-04-28T05:48:40.791Z,99256.27
2019-04-28T05:51:12.515Z,99255.70
2019-04-28T05:53:53.496Z,99255.70
2019-04-28T05:56:29.969Z,99259.56
2019-04-28T05:59:06.784Z,99249.63
2019-04-28T06:01:55.190Z,99262.02
2019-04-28T06:04:30.460Z,99262.02
2019-04-28T06:07:06.221Z,99255.83
2019-04-28T06:09:43.909Z,99256.55
2019-04-28T06:12:14.666Z,99262.94
2019-04-28T06:14:44.095Z,99257.10
2019-04-28T06:17:13.654Z,99257.39
2019-04-28T06:19:43.092Z,99266.14
2019-04-28T06:22:12.480Z,99267.64
2019-04-28T06:24:42.010Z,99268.76
2019-04-28T06:27:11.490Z,99267.20
2019-04-28T06:29:40.940Z,99262.58
2019-04-28T06:32:10.378Z,99259.64
2019-04-28T06:34:39.822Z,99260.20
2019-04-28T06:37:09.289Z,99258.00
2019-04-28T06:39:38.754Z,99262.72
2019-04-28T06:42:08.121Z,99250.58
2019-04-28T06:44:37.539Z,99250.58
2019-04-28T06:47:07.053Z,99251.90
2019-04-28T06:49:36.463Z,99248.82
2019-04-28T06:52:05.997Z,99263.20
2019-04-28T06:54:35.493Z,99255.27
2019-04-28T06:57:04.857Z,99256.13
2019-04-28T06:59:34.285Z,99240.92
2019-04-28T07:02:03.812Z,99246.52
2019-04-28T07:04:33.220Z,99247.30
2019-04-28T07:07:02.598Z,99248.27
2019-04-28T07:09:32.382Z,99248.27
2019-04-28T07:12:01.854Z,99256.22
2019-04-28T07:14:31.258Z,99252.84
2019-04-28T07:17:01.110Z,99250.84
2019-04-28T07:19:33.458Z,99250.48
2019-04-28T07:22:21.867Z,99252.94
2019-04-28T07:24:51.278Z,99254.36
2019-04-28T07:27:20.663Z,99254.56
2019-04-28T07:29:50.138Z,99255.44
2019-04-28T07:32:19.643Z,99247.91
2019-04-28T07:34:49.065Z,99250.95
2019-04-28T07:37:18.807Z,99241.72
2019-04-28T07:39:48.232Z,99240.38
2019-04-28T07:42:17.593Z,99250.89
2019-04-28T07:44:47.057Z,99250.02
2019-04-28T07:47:16.563Z,99251.81
2019-04-28T07:49:45.972Z,99259.98
2019-04-28T07:52:20.979Z,99253.50
2019-04-28T07:54:50.407Z,99250.53
2019-04-28T07:57:19.989Z,99251.88
2019-04-28T07:59:49.448Z,99254.34
2019-04-28T08:02:18.905Z,99247.50
2019-04-28T08:04:48.323Z,99258.84
2019-04-28T08:07:17.860Z,99251.86
2019-04-28T08:09:47.257Z,99244.59
2019-04-28T08:12:16.797Z,99250.32
2019-04-28T08:14:46.263Z,99243.17
2019-04-28T08:17:15.720Z,99246.73
2019-04-28T08:19:45.152Z,99245.55
2019-04-28T08:22:14.703Z,99244.63
2019-04-28T08:24:44.121Z,99245.48
2019-04-28T08:27:13.562Z,99244.98
2019-04-28T08:29:43.031Z,99248.86
2019-04-28T08:32:43.778Z,99243.84
2019-04-28T08:35:13.763Z,99242.19
2019-04-28T08:37:43.177Z,99250.34
2019-04-28T08:40:12.697Z,99253.59
2019-04-28T08:42:42.362Z,99244.67
2019-04-28T08:45:12.704Z,99239.08
2019-04-28T08:47:42.087Z,99235.29
2019-04-28T08:50:11.912Z,99228.70
2019-04-28T08:52:41.328Z,99239.42
2019-04-28T08:55:10.755Z,99234.41
2019-04-28T08:57:40.326Z,99234.41
2019-04-28T09:00:10.459Z,99237.13
2019-04-28T09:02:39.879Z,99226.13
2019-04-28T09:05:09.445Z,99218.78
2019-04-28T09:07:38.929Z,99217.97
2019-04-28T09:10:08.523Z,99208.17
2019-04-28T09:12:37.928Z,99213.87
2019-04-28T09:15:08.386Z,99213.24
2019-04-28T09:17:37.955Z,99209.83
2019-04-28T09:20:07.530Z,99217.94
2019-04-28T09:22:36.999Z,99214.20
2019-04-28T09:25:06.916Z,99216.89
2019-04-28T09:27:36.422Z,99218.34
2019-04-28T09:30:06.221Z,99213.36
2019-04-28T09:32:35.653Z,99218.27
2019-04-28T09:35:07.472Z,99214.63
2019-04-28T09:37:36.846Z,99214.41
2019-04-28T09:40:12.131Z,99215.38
2019-04-28T09:42:51.705Z,99208.78
2019-04-28T09:45:26.631Z,99214.64
2019-04-28T09:47:55.994Z,99212.75
2019-04-28T09:50:25.413Z,99197.35
2019-04-28T09:52:55.005Z,99213.56
2019-04-28T09:55:24.412Z,99207.95
2019-04-28T09:57:54.893Z,99209.83
2019-04-28T10:00:24.543Z,99205.84
2019-04-28T10:02:54.153Z,99195.50
2019-04-28T10:05:23.558Z,99181.34
2019-04-28T10:07:52.946Z,99187.07
2019-04-28T10:10:22.390Z,99196.34
2019-04-28T10:12:51.820Z,99193.39
2019-04-28T10:15:21.785Z,99192.89
2019-04-28T10:17:51.244Z,99187.88
2019-04-28T10:20:21.683Z,99191.70
2019-04-28T10:22:51.087Z,99185.70
2019-04-28T10:25:21.258Z,99182.48
2019-04-28T10:27:51.834Z,99180.30
2019-04-28T10:30:22.445Z,99176.88
2019-04-28T10:32:51.848Z,99178.95
2019-04-28T10:35:21.419Z,99176.30
2019-04-28T10:37:50.989Z,99171.40
2019-04-28T10:40:56.097Z,99170.92
2019-04-28T10:43:25.505Z,99171.84
2019-04-28T10:45:55.209Z,99165.45
2019-04-28T10:48:24.879Z,99165.95
2019-04-28T10:50:54.290Z,99161.70
2019-04-28T10:53:23.646Z,99153.27
2019-04-28T10:55:53.120Z,99151.62
2019-04-28T10:58:22.625Z,99153.99
2019-04-28T11:00:51.985Z,99149.64
2019-04-28T11:03:21.348Z,99148.34
2019-04-28T11:05:50.869Z,99146.84
2019-04-28T11:08:34.284Z,99147.97
2019-04-28T11:11:10.942Z,99142.87
2019-04-28T11:13:40.319Z,99146.03
2019-04-28T11:16:09.786Z,99154.27
2019-04-28T11:18:39.287Z,99142.14
2019-04-28T11:21:08.679Z,99138.50
2019-04-28T11:23:38.070Z,99132.98
2019-04-28T11:26:07.589Z,99127.61
2019-04-28T11:28:37.919Z,99126.11
2019-04-28T11:31:07.707Z,99132.16
2019-04-28T11:33:49.645Z,99129.14
2019-04-28T11:36:20.634Z,99130.64
2019-04-28T11:38:50.137Z,99128.12
2019-04-28T11:41:19.684Z,99120.23
2019-04-28T11:43:49.175Z,99121.09
2019-04-28T11:46:20.195Z,99123.45
2019-04-28T11:48:49.590Z,99114.69
2019-04-28T11:51:19.066Z,99111.98
2019-04-28T11:53:48.551Z,99112.49
2019-04-28T11:56:17.976Z,99105.78
2019-04-28T11:58:47.337Z,99105.59
2019-04-28T12:01:17.041Z,99100.55
2019-04-28T12:03:48.156Z,99091.45
2019-04-28T12:06:17.527Z,99086.76
2019-04-28T12:08:48.614Z,99084.36
2019-04-28T12:11:27.881Z,99070.60
2019-04-28T12:14:28.252Z,99078.00
2019-04-28T12:17:10.093Z,99077.31
2019-04-28T12:19:48.648Z,99068.50
2019-04-28T12:22:18.017Z,99064.59
2019-04-28T12:24:47.394Z,99062.69
2019-04-28T12:27:16.900Z,99048.86
2019-04-28T12:29:46.413Z,99048.83
2019-04-28T12:32:15.808Z,99059.76
2019-04-28T12:34:45.233Z,99057.06
2019-04-28T12:37:14.797Z,99052.62
2019-04-28T12:39:44.306Z,99053.50
2019-04-28T12:42:13.713Z,99045.95
2019-04-28T12:44:43.093Z,99039.02
2019-04-28T12:47:12.561Z,99030.37
2019-04-28T12:50:07.068Z,99029.48
2019-04-28T12:52:36.432Z,99031.09
2019-04-28T12:55:06.698Z,99031.22
2019-04-28T12:57:36.204Z,99024.16
2019-04-28T13:00:25.115Z,99019.29
2019-04-28T13:03:16.792Z,99020.92
2019-04-28T13:05:46.589Z,99016.33
2019-04-28T13:08:15.989Z,99014.12
2019-04-28T13:10:45.417Z,99013.41
2019-04-28T13:13:14.878Z,99010.41
2019-04-28T13:15:44.354Z,99016.06
2019-04-28T13:18:13.756Z,98999.57
2019-04-28T13:20:43.124Z,98995.90
2019-04-28T13:23:12.600Z,98999.91
2019-04-28T13:25:42.237Z,99004.91
2019-04-28T13:28:11.614Z,98999.19
2019-04-28T13:30:40.975Z,98996.05
2019-04-28T13:33:10.499Z,98996.45
2019-04-28T13:35:39.868Z,98992.00
2019-04-28T13:38:09.339Z,99001.97
2019-04-28T13:40:40.071Z,99001.34
2019-04-28T13:43:09.629Z,98999.98
2019-04-28T13:45:38.989Z,98994.64
2019-04-28T13:48:08.690Z,99003.29
2019-04-28T13:50:39.038Z,99001.48
2019-04-28T13:53:09.148Z,99001.56
2019-04-28T13:55:57.482Z,98990.56
2019-04-28T13:58:29.902Z,98989.41
2019-04-28T14:01:24.149Z,98990.50
2019-04-28T14:04:24.925Z,98992.74
2019-04-28T14:06:58.249Z,98997.23
2019-04-28T14:09:27.720Z,98997.28
2019-04-28T14:11:57.257Z,98992.20
2019-04-28T14:14:26.670Z,98993.16
2019-04-28T14:16:56.100Z,98986.94
2019-04-28T14:19:25.479Z,98981.55
2019-04-28T14:21:54.898Z,98983.88
2019-04-28T14:24:24.488Z,98973.92
2019-04-28T14:26:54.059Z,98975.11
2019-04-28T14:29:23.988Z,98978.89
2019-04-28T14:31:53.351Z,98980.84
2019-04-28T14:34:22.843Z,98979.83
2019-04-28T14:36:52.431Z,98975.97
2019-04-28T14:39:21.870Z,98967.41
2019-04-28T14:41:52.583Z,98976.59
2019-04-28T14:44:22.156Z,98974.48
2019-04-28T14:46:51.637Z,98975.14
2019-04-28T14:49:21.074Z,98961.50
2019-04-28T14:51:50.478Z,98966.38
2019-04-28T14:54:20.019Z,98971.13
2019-04-28T14:56:49.444Z,98964.85
2019-04-28T14:59:18.955Z,98975.09
2019-04-28T15:02:07.366Z,98967.94
2019-04-28T15:05:13.974Z,98970.79
2019-04-28T15:08:11.569Z,98964.73
2019-04-28T15:11:00.022Z,98970.91
2019-04-28T15:13:29.548Z,98973.84
2019-04-28T15:15:59.016Z,98975.92
2019-04-28T15:18:28.620Z,98972.56
2019-04-28T15:20:58.211Z,98969.55
2019-04-28T15:23:27.697Z,98970.05
2019-04-28T15:25:57.087Z,98972.09
2019-04-28T15:28:26.468Z,98969.55
2019-04-28T15:30:55.945Z,98960.29
2019-04-28T15:33:25.494Z,98965.17
2019-04-28T15:35:54.869Z,98963.97
2019-04-28T15:38:24.327Z,98956.25
2019-04-28T15:40:54.342Z,98954.24
2019-04-28T15:43:23.772Z,98965.72
2019-04-28T15:45:53.351Z,98962.36
2019-04-28T15:48:22.880Z,98956.83
2019-04-28T15:50:52.254Z,98959.34
2019-04-28T15:53:21.628Z,98955.17
2019-04-28T15:55:58.347Z,98958.56
2019-04-28T15:58:35.486Z,98953.69
2019-04-28T16:01:05.342Z,98948.66
2019-04-28T16:03:34.701Z,98945.14
2019-04-28T16:06:04.272Z,98941.30
2019-04-28T16:08:33.783Z,98944.02
2019-04-28T16:11:03.185Z,98947.73
2019-04-28T16:13:32.584Z,98945.56
2019-04-28T16:16:02.210Z,98950.80
2019-04-28T16:18:31.673Z,98954.13
2019-04-28T16:21:01.845Z,98949.42
2019-04-28T16:23:31.293Z,98953.97
2019-04-28T16:26:00.852Z,98952.47
2019-04-28T16:28:30.342Z,98954.34
2019-04-28T16:31:00.230Z,98950.30
2019-04-28T16:33:30.043Z,98954.17
2019-04-28T16:35:59.581Z,98948.80
2019-04-28T16:38:29.117Z,98945.80
2019-04-28T16:41:09.107Z,98952.20
2019-04-28T16:44:12.371Z,98948.99
2019-04-28T16:46:41.854Z,98954.84
2019-04-28T16:49:11.321Z,98947.09
2019-04-28T16:51:40.718Z,98958.33
2019-04-28T16:54:10.070Z,98957.83
2019-04-28T16:56:59.351Z,98953.97
2019-04-28T16:59:57.071Z,98963.34
2019-04-28T17:02:31.783Z,98963.15
2019-04-28T17:05:01.627Z,98968.16
2019-04-28T17:07:30.999Z,98966.44
2019-04-28T17:10:00.714Z,98969.12
2019-04-28T17:12:30.222Z,98967.66
2019-04-28T17:14:59.702Z,98971.30
2019-04-28T17:17:29.118Z,98965.55
2019-04-28T17:19:58.497Z,98967.00
2019-04-28T17:22:28.606Z,98972.97
2019-04-28T17:24:58.072Z,98980.18
2019-04-28T17:27:27.432Z,98972.80
2019-04-28T17:29:56.805Z,98975.92
2019-04-28T17:32:26.305Z,98976.58
2019-04-28T17:34:55.767Z,98984.56
2019-04-28T17:37:25.133Z,98985.20
2019-04-28T17:39:55.136Z,98993.33
2019-04-28T17:42:24.575Z,98995.15
2019-04-28T17:44:54.284Z,98997.91
2019-04-28T17:47:24.593Z,99001.36
2019-04-28T17:49:54.077Z,99007.03
2019-04-28T17:52:23.454Z,99016.46
2019-04-28T17:54:52.863Z,99014.72
2019-04-28T17:57:22.337Z,99026.06
2019-04-28T17:59:53.570Z,99020.27
2019-04-28T18:02:40.508Z,99025.06
2019-04-28T18:05:21.511Z,99037.20
2019-04-28T18:07:56.462Z,99034.58
2019-04-28T18:10:25.303Z,99047.02
2019-04-28T18:13:00.889Z,99046.03
2019-04-28T18:15:43.332Z,99050.42
2019-04-28T18:18:29.977Z,99055.41
2019-04-28T18:20:59.406Z,99049.20
2019-04-28T18:23:28.948Z,99053.11
2019-04-28T18:25:58.427Z,99047.41
2019-04-28T18:28:27.838Z,99043.81
2019-04-28T18:31:22.016Z,99046.88
2019-04-28T18:34:18.471Z,99052.50
2019-04-28T18:36:55.039Z,99048.94
2019-04-28T18:39:43.387Z,99052.61
2019-04-28T18:42:23.785Z,99058.88
2019-04-28T18:44:53.369Z,99060.70
2019-04-28T18:47:22.942Z,99060.12
2019-04-28T18:49:52.312Z,99060.39
2019-04-28T18:52:21.695Z,99055.14
2019-04-28T18:54:51.210Z,99058.38
2019-04-28T18:57:20.760Z,99067.75
2019-04-28T18:59:50.202Z,99066.71
2019-04-28T19:02:38.544Z,99063.84
2019-04-28T19:05:10.584Z,99068.70
2019-04-28T19:08:15.286Z,99060.19
2019-04-28T19:11:03.660Z,99068.12
2019-04-28T19:13:35.774Z,99072.98
2019-04-28T19:16:22.927Z,99077.74
2019-04-28T19:18:53.396Z,99079.02
2019-04-28T19:21:22.877Z,99080.80
2019-04-28T19:23:54.162Z,99085.36
2019-04-28T19:26:23.478Z,99080.30
2019-04-28T19:28:52.847Z,99093.23
2019-04-28T19:31:22.363Z,99094.16
2019-04-28T19:33:51.839Z,99098.72
2019-04-28T19:36:21.219Z,99098.56
2019-04-28T19:39:02.486Z,99097.84
2019-04-28T19:41:21.943Z,99105.24
2019-04-28T19:43:51.419Z,99102.94
2019-04-28T19:46:20.951Z,99106.17
2019-04-28T19:48:50.406Z,99102.31
2019-04-28T19:51:31.186Z,99106.05
2019-04-28T19:53:51.390Z,99108.89
2019-04-28T19:56:30.611Z,99114.44
2019-04-28T19:59:22.578Z,99112.45
2019-04-28T20:01:51.945Z,99112.45
2019-04-28T20:04:21.322Z,99119.44
2019-04-28T20:06:50.838Z,99121.28
2019-04-28T20:09:20.349Z,99130.84
2019-04-28T20:11:49.793Z,99134.07
2019-04-28T20:14:19.200Z,99135.39
2019-04-28T20:16:48.684Z,99141.13
2019-04-28T20:19:18.166Z,99142.61
2019-04-28T20:21:47.567Z,99134.39
2019-04-28T20:24:19.440Z,99139.86
2019-04-28T20:26:48.150Z,99138.02
2019-04-28T20:29:17.564Z,99138.05
2019-04-28T20:31:48.115Z,99135.97
2019-04-28T20:34:17.596Z,99141.20
2019-04-28T20:37:01.906Z,99142.77
2019-04-28T20:39:32.237Z,99142.27
2019-04-28T20:42:19.526Z,99142.89
2019-04-28T20:44:49.554Z,99144.02
2019-04-28T20:47:18.912Z,99145.88
2019-04-28T20:49:48.346Z,99152.30
2019-04-28T20:52:17.827Z,99150.88
2019-04-28T20:54:47.392Z,99150.91
2019-04-28T20:57:17.176Z,99149.70
2019-04-28T20:59:46.562Z,99154.81
2019-04-28T21:02:16.049Z,99157.47
2019-04-28T21:04:45.457Z,99153.38
2019-04-28T21:07:15.436Z,99151.05
2019-04-28T21:09:44.924Z,99158.69
2019-04-28T21:12:14.331Z,99160.86
2019-04-28T21:14:43.694Z,99166.55
2019-04-28T21:17:13.180Z,99157.11
2019-04-28T21:19:42.687Z,99157.11
2019-04-28T21:22:12.060Z,99161.93
2019-04-28T21:24:41.428Z,99147.77
2019-04-28T21:27:11.217Z,99153.71
2019-04-28T21:29:40.779Z,99139.92
2019-04-28T21:32:10.160Z,99141.23
2019-04-28T21:34:39.695Z,99136.74
2019-04-28T21:37:09.181Z,99133.48
2019-04-28T21:39:38.654Z,99130.59
2019-04-28T21:42:10.932Z,99125.36
2019-04-28T21:44:52.982Z,99119.81
2019-04-28T21:47:25.485Z,99115.92
2019-04-28T21:49:55.055Z,99113.52
2019-04-28T21:52:24.411Z,99107.20
2019-04-28T21:54:53.812Z,99104.55
2019-04-28T21:57:23.288Z,99104.76
2019-04-28T21:59:52.771Z,99107.20
2019-04-28T22:02:22.262Z,99111.19
2019-04-28T22:04:51.617Z,99116.60
2019-04-28T22:07:22.158Z,99112.86
2019-04-28T22:09:51.673Z,99117.33
2019-04-28T22:12:21.035Z,99116.51
2019-04-28T22:14:50.409Z,99116.74
2019-04-28T22:17:20.047Z,99110.70
2019-04-28T22:19:49.553Z,99110.20
2019-04-28T22:22:18.928Z,99112.70
2019-04-28T22:25:11.492Z,99111.02
2019-04-28T22:27:42.122Z,99112.31
2019-04-28T22:30:11.856Z,99118.11
2019-04-28T22:32:41.363Z,99120.77
2019-04-28T22:35:11.032Z,99122.66
2019-04-28T22:37:40.396Z,99124.22
2019-04-28T22:40:10.017Z,99118.47
2019-04-28T22:42:39.488Z,99124.63
2019-04-28T22:45:10.209Z,99130.30
2019-04-28T22:47:39.606Z,99128.45
2019-04-28T22:50:23.437Z,99130.38
2019-04-28T22:52:53.065Z,99134.84
2019-04-28T22:55:24.129Z,99136.97
2019-04-28T22:58:14.743Z,99139.73
2019-04-28T23:00:56.362Z,99139.00
2019-04-28T23:03:43.575Z,99129.77
2019-04-28T23:06:14.205Z,99133.70
2019-04-28T23:08:43.673Z,99132.95
2019-04-28T23:11:13.225Z,99127.67
2019-04-28T23:13:42.577Z,99127.00
2019-04-28T23:16:11.942Z,99126.66
2019-04-28T23:18:41.454Z,99125.78
2019-04-28T23:21:33.305Z,99130.02
2019-04-28T23:24:02.717Z,99127.95
2019-04-28T23:26:32.063Z,99135.38
2019-04-28T23:29:01.524Z,99135.08
2019-04-28T23:31:31.126Z,99139.80
2019-04-28T23:34:00.491Z,99138.34
2019-04-28T23:36:29.844Z,99148.86
2019-04-28T23:38:59.367Z,99145.23
2019-04-28T23:41:34.755Z,99146.06
2019-04-28T23:44:04.182Z,99147.46
2019-04-28T23:46:51.344Z,99156.87
2019-04-28T23:49:20.761Z,99146.73
2019-04-28T23:52:14.945Z,99153.66
2019-04-28T23:54:46.563Z,99152.57
2019-04-28T23:57:16.123Z,99150.96
2019-04-28T23:59:45.484Z,99148.91
